Flight Track Log - Related Links

Times and Time Zones

All times are in EDT time to prevent confusion due to time zone crossing. See the SWA466 flight status page for this flight to view local times or setup timezone preferences in your user account.

Time Position Orientation Groundspeed Altitude Reporting Facility
EDT Latitude Longitude Course Direction KTS MPH feet Rate Location/Type
Fri 06:30:42 PM 45.5947 -122.6222 113° Southeast 160 184 700  Level Seattle Center
Fri 06:30:56 PM 45.6000 -122.6333 304° West 159 183 1,300 2,320 Climbing Seattle Center
Fri 06:31:57 PM 45.6292 -122.7025 301° West 194 223 3,600 2,066 Climbing Seattle Center
Fri 06:32:58 PM 45.6608 -122.7856 299° West 241 277 5,500 2,508 Climbing Seattle Center
Fri 06:33:59 PM 45.6181 -122.8550 229° Southwest 272 313 8,700 3,049 Climbing Seattle Center
Fri 06:35:00 PM 45.5639 -122.7653 131° Southeast 305 351 11,700 2,951 Climbing Seattle Center
Fri 06:36:00 PM 45.1969 -121.7729 113° Southeast  Level FlightAware Approximate
Fri 06:36:01 PM 45.5206 -122.6514 118° Southeast 332 382 14,700  Level Seattle Center
Fri 06:37:02 PM 45.4731 -122.5314 119° Southeast 350 403 17,700 2,803 Climbing Seattle Center
Fri 06:38:03 PM 45.4228 -122.4039 119° Southeast 365 420 20,400 2,607 Climbing Seattle Center
Fri 06:39:04 PM 45.3714 -122.2714 119° Southeast 375 432 23,000 2,361 Climbing Seattle Center
Fri 06:40:05 PM 45.3150 -122.1317 120° Southeast 399 459 25,200 2,066 Climbing Seattle Center
Fri 06:41:06 PM 45.2600 -121.9900 119° Southeast 407 468 27,200 1,869 Climbing Seattle Center
Fri 06:42:07 PM 45.2167 -121.8314 111° Southeast 425 489 29,000 1,623 Climbing Seattle Center
Fri 06:43:08 PM 45.1758 -121.6689 110° East 434 499 30,500 1,475 Climbing Seattle Center
Fri 06:44:09 PM 45.1317 -121.5011 110° East 448 516 32,000 1,268 Climbing Seattle Center
Fri 06:45:11 PM 45.0878 -121.3333 110° East 453 521 33,100 1,180 Climbing Seattle Center
Fri 06:46:11 PM 45.0419 -121.1619 111° Southeast 460 529 34,400 1,488 Climbing Seattle Center
Fri 06:47:12 PM 44.9878 -120.9533 110° East 469 540 36,100 1,426 Climbing Seattle Center
Fri 06:48:13 PM 44.9425 -120.7839 111° Southeast 469 540 37,300 1,082 Climbing Seattle Center
Fri 06:49:14 PM 44.8972 -120.6164 111° Southeast 464 534 38,300 836 Climbing Seattle Center
Fri 06:50:15 PM 44.8511 -120.4481 111° Southeast 464 534 39,000 344 Climbing Seattle Center
Fri 06:51:16 PM 44.8064 -120.2819 111° Southeast 463 533 39,000  Level Seattle Center
Fri 06:52:17 PM 44.7614 -120.1156 111° Southeast 463 533 39,000  Level Seattle Center
Fri 06:53:18 PM 44.7167 -119.9528 111° Southeast 458 527 39,000  Level Seattle Center
Fri 06:54:19 PM 44.6700 -119.7867 112° Southeast 458 527 39,000  Level Seattle Center
Fri 06:55:20 PM 44.6139 -119.5878 112° Southeast 461 531 39,000  Level Seattle Center
Fri 06:56:21 PM 44.5653 -119.4231 112° Southeast 461 531 39,000  Level Seattle Center
Fri 06:57:22 PM 44.5156 -119.2558 113° Southeast 463 533 39,000  Level Seattle Center
Fri 06:58:23 PM 44.4669 -119.0875 112° Southeast 464 534 39,000  Level Seattle Center
Fri 06:59:24 PM 44.4156 -118.9222 113° Southeast 466 536 39,000  Level Seattle Center
Fri 07:00:24 PM 44.3664 -118.7575 113° Southeast 464 534 39,000  Level Seattle Center
Fri 07:01:25 PM 44.3156 -118.5897 113° Southeast 465 535 39,000  Level Salt Lake Center
Fri 07:02:27 PM 44.2656 -118.4264 113° Southeast 464 534 39,000  Level Salt Lake Center
Fri 07:03:28 PM 44.2100 -118.2469 113° Southeast 464 534 39,000  Level Salt Lake Center
Fri 07:04:28 PM 44.1592 -118.0822 113° Southeast 464 534 39,000  Level Seattle Center
Fri 07:05:29 PM 44.1083 -117.9197 113° Southeast 462 532 39,000  Level Seattle Center
Fri 07:06:30 PM 44.0589 -117.7561 113° Southeast 462 532 39,000  Level Seattle Center
Fri 07:07:35 PM 44.0053 -117.5936 115° Southeast 456 525 39,000  Level Salt Lake Center
Fri 07:08:36 PM 43.9439 -117.4006 114° Southeast 457 526 39,000  Level Salt Lake Center
Fri 07:09:38 PM 43.8922 -117.2411 114° Southeast 454 522 39,000  Level Salt Lake Center
Fri 07:10:40 PM 43.8419 -117.0800 113° Southeast 455 524 39,000  Level Salt Lake Center
Fri 07:11:41 PM 43.7908 -116.9200 114° Southeast 457 526 39,000  Level Salt Lake Center
Fri 07:12:43 PM 43.7406 -116.7647 114° Southeast 449 517 39,000  Level Salt Lake Center
Fri 07:13:44 PM 43.6881 -116.6067 115° Southeast 452 520 39,000  Level Salt Lake Center
Fri 07:14:46 PM 43.6275 -116.4172 114° Southeast 451 519 39,000  Level Salt Lake Center
Fri 07:15:47 PM 43.5758 -116.2614 115° Southeast 449 517 39,000  Level Salt Lake Center
Fri 07:16:49 PM 43.5358 -116.0981 109° East 454 522 39,000  Level Salt Lake Center
Fri 07:17:50 PM 43.5058 -115.9294 104° East 456 525 39,000  Level Salt Lake Center
Fri 07:18:52 PM 43.4753 -115.7608 104° East 456 525 39,000  Level Salt Lake Center
Fri 07:19:53 PM 43.4447 -115.5919 104° East 457 526 39,000  Level Salt Lake Center
Fri 07:20:55 PM 43.4147 -115.4236 104° East 456 525 39,000  Level Salt Lake Center
Fri 07:21:57 PM 43.3781 -115.2211 104° East 457 526 39,000  Level Salt Lake Center
Fri 07:22:58 PM 43.3469 -115.0547 104° East 455 524 39,000  Level Salt Lake Center
Fri 07:24:00 PM 43.3156 -114.8872 104° East 454 522 39,000  Level Salt Lake Center
Fri 07:25:01 PM 43.2844 -114.7203 104° East 453 521 39,000  Level Salt Lake Center
Fri 07:26:03 PM 43.2536 -114.5525 104° East 454 522 39,000  Level Salt Lake Center
Fri 07:27:04 PM 43.2208 -114.3847 105° East 455 524 39,000  Level Salt Lake Center
Fri 07:28:06 PM 43.1847 -114.1989 105° East 456 525 39,000  Level Salt Lake Center
Fri 07:29:07 PM 43.1517 -114.0294 105° East 458 527 39,000  Level Salt Lake Center
Fri 07:30:09 PM 43.1136 -113.8403 105° East 465 535 39,000  Level Salt Lake Center
Fri 07:31:11 PM 43.0819 -113.6758 105° East 466 536 39,000  Level Salt Lake Center
Fri 07:32:12 PM 43.0481 -113.5117 106° East 467 537 39,000  Level Salt Lake Center
Fri 07:33:14 PM 43.0097 -113.3236 106° East 465 535 39,000  Level Salt Lake Center
Fri 07:34:16 PM 42.9764 -113.1597 105° East 466 536 39,000  Level Salt Lake Center
Fri 07:35:17 PM 42.9378 -112.9706 106° East 465 535 39,000  Level Salt Lake Center
Fri 07:36:19 PM 42.9042 -112.8111 106° East 462 532 39,000  Level Salt Lake Center
Fri 07:37:21 PM 42.8631 -112.6225 107° East 463 533 39,000  Level Salt Lake Center
Fri 07:38:22 PM 42.8108 -112.4714 115° Southeast 460 529 39,000  Level Salt Lake Center
Fri 07:39:24 PM 42.7528 -112.2931 114° Southeast 461 531 39,000  Level Salt Lake Center
Fri 07:40:26 PM 42.7014 -112.1411 115° Southeast 462 532 39,000  Level Salt Lake Center
Fri 07:41:27 PM 42.6417 -111.9661 115° Southeast 466 536 39,000  Level Salt Lake Center
Fri 07:42:29 PM 42.5881 -111.8061 114° Southeast 466 536 39,000  Level Salt Lake Center
Fri 07:43:31 PM 42.5336 -111.6467 115° Southeast 466 536 39,000  Level Salt Lake Center
Fri 07:44:33 PM 42.4789 -111.4897 115° Southeast 464 534 39,000  Level Salt Lake Center
Fri 07:45:34 PM 42.4256 -111.3350 115° Southeast 459 528 39,000  Level Salt Lake Center
Fri 07:46:36 PM 42.3719 -111.1775 115° Southeast 458 527 39,000  Level Salt Lake Center
Fri 07:47:38 PM 42.3167 -111.0217 116° Southeast 460 529 39,000  Level Salt Lake Center
Fri 07:48:40 PM 42.2564 -110.8478 115° Southeast 460 529 39,000  Level Salt Lake Center
Fri 07:49:41 PM 42.1953 -110.6764 116° Southeast 458 527 39,000  Level Salt Lake Center
Fri 07:50:43 PM 42.1425 -110.5275 116° Southeast 458 527 39,000  Level Salt Lake Center
Fri 07:51:45 PM 42.0897 -110.3806 116° Southeast 459 528 39,000  Level Salt Lake Center
Fri 07:52:47 PM 42.0281 -110.2072 116° Southeast 459 528 39,000  Level Salt Lake Center
Fri 07:53:49 PM 41.9742 -110.0575 116° Southeast 462 532 39,000  Level Salt Lake Center
Fri 07:54:50 PM 41.9108 -109.8844 116° Southeast 464 534 39,000  Level Salt Lake Center
Fri 07:55:52 PM 41.8567 -109.7364 116° Southeast 464 534 39,000  Level Salt Lake Center
Fri 07:56:54 PM 41.7922 -109.5625 116° Southeast 464 534 39,000  Level Salt Lake Center
Fri 07:57:56 PM 41.7375 -109.4128 116° Southeast 464 534 39,000  Level Salt Lake Center
Fri 07:58:58 PM 41.6825 -109.2633 116° Southeast 464 534 39,000  Level Salt Lake Center
Fri 08:00:00 PM 41.6172 -109.0883 116° Southeast 465 535 39,000  Level Salt Lake Center
Fri 08:01:02 PM 41.5656 -108.9361 114° Southeast 464 534 39,000  Level Salt Lake Center
Fri 08:02:03 PM 41.5108 -108.7533 112° Southeast 466 536 39,000  Level Salt Lake Center
Fri 08:03:05 PM 41.4636 -108.5972 112° Southeast 468 539 39,000  Level Salt Lake Center
Fri 08:04:07 PM 41.4153 -108.4419 112° Southeast 471 542 39,000  Level Salt Lake Center
Fri 08:05:09 PM 41.3589 -108.2614 113° Southeast 471 542 39,000  Level Salt Lake Center
Fri 08:06:19 PM 41.2950 -108.0886 116° Southeast 468 539 39,000  Level Denver Center
Fri 08:07:21 PM 41.2272 -107.9197 118° Southeast 467 537 39,000 -435 Level Denver Center
Fri 08:08:23 PM 41.1703 -107.7742 117° Southeast 467 537 38,100 -960 Descending Denver Center
Fri 08:09:26 PM 41.1017 -107.6050 118° Southeast 466 536 37,000 -960 Descending Denver Center
Fri 08:10:28 PM 41.0442 -107.4583 117° Southeast 467 537 36,100 -968 Descending Denver Center
Fri 08:11:30 PM 40.9769 -107.2872 117° Southeast 468 539 35,000 -968 Descending Denver Center
Fri 08:12:32 PM 40.9167 -107.1403 118° Southeast 470 541 34,100 -871 Descending Denver Center
Fri 08:13:34 PM 40.8575 -106.9928 118° Southeast 471 542 33,200 -532 Descending Denver Center
Fri 08:14:36 PM 40.7864 -106.8206 119° Southeast 477 549 33,000 -97 Descending Denver Center
Fri 08:15:38 PM 40.7208 -106.6578 118° Southeast 478 550 33,000 -532 Level Denver Center
Fri 08:16:40 PM 40.6581 -106.5036 118° Southeast 470 541 31,900 -1,500 Descending Denver Center
Fri 08:17:42 PM 40.5978 -106.3606 119° Southeast 468 539 29,900 -2,032 Descending Denver Center
Fri 08:18:44 PM 40.5317 -106.1997 118° Southeast 452 520 27,700 -1,984 Descending Denver Center
Fri 08:19:46 PM 40.4744 -106.0619 119° Southeast 451 519 25,800 -1,887 Descending Denver Center
Fri 08:20:48 PM 40.4328 -105.9147 110° East 442 509 23,800 -1,839 Descending Denver Center
Fri 08:21:50 PM 40.4086 -105.7647 102° East 426 490 22,000 -1,935 Descending Denver Center
Fri 08:22:52 PM 40.3814 -105.5906 102° East 409 471 19,800 -1,694 Descending Denver Center
Fri 08:23:54 PM 40.3592 -105.4536 102° East 391 450 18,500 -1,161 Descending Denver Center
Fri 08:24:56 PM 40.3403 -105.3297 101° East 339 390 17,400 -1,065 Descending Denver Center
Fri 08:25:58 PM 40.3344 -105.2139 94° East 321 369 16,300 -1,016 Descending Denver Center
Fri 08:27:00 PM 40.3439 -105.0942 84° East 312 359 15,300 -919 Descending Denver Center
Fri 08:28:02 PM 40.3547 -104.9908 82° East 291 335 14,400 -1,016 Descending Denver Center
Fri 08:29:04 PM 40.3589 -104.8933 87° East 272 313 13,200 -1,016 Descending Denver Center
Fri 08:30:06 PM 40.3481 -104.7886 98° East 270 311 12,300 -919 Descending Denver Center
Fri 08:31:08 PM 40.3156 -104.7125 119° Southeast 262 302 11,300 -774 Descending Denver Center
Fri 08:32:10 PM 40.2492 -104.6822 161° South 242 278 10,700 -629 Descending Denver Center
Fri 08:33:12 PM 40.1833 -104.6844 181° South 239 275 10,000 -488 Descending Denver Center
Fri 08:34:13 PM 40.1367 -104.6839 179° South 198 228 9,700 -677 Descending Denver Center
Fri 08:35:16 PM 40.0733 -104.6850 181° South 187 215 8,600 -912 Descending Denver Center
Fri 08:36:18 PM 40.0242 -104.6853 180° South 181 208 7,800 -878 Descending Denver Center
Fri 08:37:19 PM 39.9739 -104.6858 180° South 170 196 6,800 -878 Descending Denver Center
Fri 08:38:21 PM 39.9336 -104.6867 181° South 146 168 6,000 -677 Descending Denver Center
Fri 08:39:23 PM 39.8956 -104.6869 180° South 138 159 5,400 -581 Descending Denver Center
Fri 08:41:00 PM 39.8617 -104.6732 North  Level Estimated
Fri 08:48:00 PM 39.8617 -104.6732 North  Level Estimated
Fri 08:49:00 PM 39.8617 -104.6732 North  Level Estimated

Login

Don't have an account? Register now (free) for customized features, flight alerts, and more!